메인 페이지
METAR-TAF:

METAR-TAF

공항 :

애들레이드, 오스트레일리아

애들레이드 공항

위도: 34-56S, 경도: 138-31E, 고도: 6m

현재 날씨관측

예보는 26분 전, 07:00시(UTC)에 발표되었습니다.
15kt
온도 22°C
습도 41%
기압 1013 hPa
시정 10km 이상
고도 4200ft 상공 구름 조금

METAR: YPAD 250700Z 17015KT 9999 FEW042 22/08 Q1013 NOSIG

시각: 17:56 (07:26 UTC)

예보

예보는 2 시간 19분 전, 05:07시(UTC)에 발표되었습니다.
예보 대상 시간: 25일 06시부터 26일 12시까지 (UTC)
16kt
시정 10km 이상
고도 4500ft 상공 구름 보통
25일 1000시부터 (UTC)
남동8kt
시정 10km 이상
1500m 미만 상공 구름 및 적란운 없음
25일 2100시부터 (UTC)
여러 방향의 바람 5kt
시정 10km 이상
1500m 미만 상공 구름 및 적란운 없음
26일 0100시부터 (UTC)
남서14kt
시정 10km 이상
1500m 미만 상공 구름 및 적란운 없음
26일 0800시부터 (UTC)
8kt
시정 10km 이상
1500m 미만 상공 구름 및 적란운 없음

TAF: YPAD 250507Z 2506/2612 17016KT 9999 SCT045 FM251000 14008KT CAVOK FM252100 VRB05KT CAVOK FM260100 22014KT CAVOK FM260800 10008KT CAVOK

4,000개 이상의 공항 관측 자료 및 예보 (METAR 및 TAF 보고).

지도상에서 검색 가능한 기상관측소가 노란 점과 빨간 점으로 표시되어 있습니다.

기상관측소 명을 보려면 표시 위로 마우스를 이동하세요.

날씨 관측과 예보를 보려면 클릭하세요.

지도 변경 : 확대하려면 엑스 표시가 있는 녹색 버튼, 축소하려면 빼기 표시가 있는 녹색 버튼, 다음 페이지의 지도를 보려면 녹색 화살표를 클릭하세요.


METAR-TAF: